CheckWX is a tool to help pilots better visualize weather data.  It is not intended as a substitute for an official pre-flight weather briefing.

22:39:37 UTC

KSZT METAR
Sandpoint Airport
Sandpoint, Idaho, USA
Current

25 mins ago

KSZT 222215Z AUTO 00000KT 10SM CLR 02/M01 A3025 RMK AO2
Observed
Nov-22 @ 22:15 UTC
Visibility
10 SM
Flight Rules
VFR
Cloud Levels
  • Clear skies
Temperature
C / 36°F
Dewpoint
-1°C / 30°F
Humidity
81%
Altimeter
30.25" Hg
Pressure
1024.42 hPa
Previous

45 mins ago

KSZT 222155Z AUTO 00000KT 10SM CLR 01/M01 A3025 RMK AO2
Observed
Nov-22 @ 21:55 UTC
Visibility
10 SM
Flight Rules
VFR
Cloud Levels
  • Clear skies
Temperature
C / 34°F
Dewpoint
-1°C / 30°F
Humidity
87%
Altimeter
30.25" Hg
Pressure
1024.42 hPa
Previous

1 hour ago

KSZT 222135Z AUTO 00000KT 10SM CLR 01/M01 A3025 RMK AO2
Observed
Nov-22 @ 21:35 UTC
Visibility
10 SM
Flight Rules
VFR
Cloud Levels
  • Clear skies
Temperature
C / 34°F
Dewpoint
-1°C / 30°F
Humidity
87%
Altimeter
30.25" Hg
Pressure
1024.42 hPa